Time;durP1;ratioP1;P1;durP2;ratioP2;P2;SDS_P1;SDS_P2;PMS_P1;PMS_P2;Temp;Humidity;BMP_temperature;BMP_pressure;BME280_temperature;BME280_humidity;BME280_pressure;Samples;Min_cycle;Max_cycle;Signal;HPM_P1;HPM_P2
2022/05/22 00:01:00;;;;;;;9.05;4.38;;;;;;;;;;5032908;28;20186;-69
2022/05/22 00:03:25;;;;;;;9.27;4.22;;;;;;;;;;5045154;28;20182;-69
2022/05/22 00:05:50;;;;;;;7.50;4.90;;;;;;;;;;5050949;28;20212;-69
2022/05/22 00:08:16;;;;;;;7.07;3.97;;;;;;;;;;5047442;28;20250;-69
2022/05/22 00:10:41;;;;;;;12.60;4.72;;;;;;;;;;5036459;28;20320;-69
2022/05/22 00:13:07;;;;;;;5.75;3.80;;;;;;;;;;5039594;28;20178;-69
2022/05/22 00:15:32;;;;;;;12.15;4.63;;;;;;;;;;5046092;28;20176;-69
2022/05/22 00:17:58;;;;;;;10.10;4.22;;;;;;;;;;5038985;28;20186;-69
2022/05/22 00:20:23;;;;;;;7.75;3.70;;;;;;;;;;5035708;28;20166;-69
2022/05/22 00:22:49;;;;;;;8.43;4.50;;;;;;;;;;5041715;28;20181;-69
2022/05/22 00:25:14;;;;;;;11.55;4.57;;;;;;;;;;5037562;28;20182;-69
2022/05/22 00:27:41;;;;;;;8.15;4.10;;;;;;;;;;5039993;28;20559;-69
2022/05/22 00:30:10;;;;;;;8.35;4.20;;;;;;;;;;5029139;28;20178;-69
2022/05/22 00:32:36;;;;;;;9.32;4.28;;;;;;;;;;5040067;28;20664;-69
2022/05/22 00:35:02;;;;;;;5.25;4.10;;;;;;;;;;5042648;28;20182;-69
2022/05/22 00:37:27;;;;;;;9.65;4.72;;;;;;;;;;5043070;28;20637;-69
2022/05/22 00:39:53;;;;;;;9.60;4.95;;;;;;;;;;5048855;28;20177;-69
2022/05/22 00:42:21;;;;;;;8.77;4.88;;;;;;;;;;5045238;28;20185;-69
2022/05/22 00:44:47;;;;;;;8.75;4.93;;;;;;;;;;5039493;28;20182;-69
2022/05/22 00:47:13;;;;;;;12.18;5.55;;;;;;;;;;5040640;28;20276;-69
2022/05/22 00:49:42;;;;;;;8.95;5.35;;;;;;;;;;5034355;28;20197;-69
2022/05/22 00:52:24;;;;;;;12.48;6.25;;;;;;;;;;5036852;28;20174;-69
2022/05/22 00:54:59;;;;;;;11.45;6.05;;;;;;;;;;5039374;28;20253;-68
2022/05/22 00:57:33;;;;;;;9.52;6.05;;;;;;;;;;5044295;28;20280;-69
2022/05/22 01:00:04;;;;;;;10.48;6.40;;;;;;;;;;5044060;28;20265;-68
2022/05/22 01:03:26;;;;;;;11.10;5.68;;;;;;;;;;5041446;28;20185;-68
2022/05/22 01:05:15;;;;;;;12.50;6.50;;;;;;;;;;5046995;28;20196;-68
2022/05/22 01:07:41;;;;;;;8.70;6.55;;;;;;;;;;5030873;28;20393;-69
2022/05/22 01:10:06;;;;;;;10.50;6.28;;;;;;;;;;5032495;28;20174;-69
2022/05/22 01:12:32;;;;;;;15.80;6.68;;;;;;;;;;5034658;28;20245;-69
2022/05/22 01:14:57;;;;;;;10.38;6.13;;;;;;;;;;5043532;28;20597;-69
2022/05/22 01:17:23;;;;;;;12.15;6.63;;;;;;;;;;5042703;28;20184;-69
2022/05/22 01:19:59;;;;;;;9.88;6.70;;;;;;;;;;5036735;28;20189;-69
2022/05/22 01:22:26;;;;;;;11.27;6.32;;;;;;;;;;5044572;28;20224;-69
2022/05/22 01:24:52;;;;;;;13.27;6.47;;;;;;;;;;5043288;28;20177;-69
2022/05/22 01:27:20;;;;;;;12.50;6.50;;;;;;;;;;5040048;28;20713;-69
2022/05/22 01:29:45;;;;;;;9.98;6.05;;;;;;;;;;5039470;28;20178;-69
2022/05/22 01:32:11;;;;;;;12.32;6.45;;;;;;;;;;5040966;28;20882;-69
2022/05/22 01:34:36;;;;;;;12.18;7.28;;;;;;;;;;5034612;28;20188;-69
2022/05/22 01:37:02;;;;;;;12.57;7.43;;;;;;;;;;5037014;28;20376;-69
2022/05/22 01:39:27;;;;;;;12.18;7.13;;;;;;;;;;5028180;28;20185;-69
2022/05/22 01:41:52;;;;;;;13.23;6.80;;;;;;;;;;5035862;28;20185;-69
2022/05/22 01:44:18;;;;;;;12.15;6.50;;;;;;;;;;5035398;28;20607;-69
2022/05/22 01:46:43;;;;;;;13.10;7.70;;;;;;;;;;5037608;28;20194;-69
2022/05/22 01:49:08;;;;;;;10.98;7.93;;;;;;;;;;5043269;28;20204;-69
2022/05/22 01:51:39;;;;;;;15.40;8.50;;;;;;;;;;5037719;28;20308;-69
2022/05/22 01:54:05;;;;;;;18.38;8.80;;;;;;;;;;5028321;28;20618;-69
2022/05/22 01:56:32;;;;;;;17.25;8.73;;;;;;;;;;5042206;28;20177;-69
2022/05/22 01:58:57;;;;;;;13.68;8.85;;;;;;;;;;5040200;28;20521;-69
2022/05/22 02:01:23;;;;;;;15.25;8.25;;;;;;;;;;5037562;28;20185;-69
2022/05/22 02:03:48;;;;;;;17.33;9.07;;;;;;;;;;5040431;28;20227;-69
2022/05/22 02:06:13;;;;;;;16.27;9.30;;;;;;;;;;5039980;28;20206;-70
2022/05/22 02:08:39;;;;;;;15.40;8.85;;;;;;;;;;5038326;28;20581;-69
2022/05/22 02:11:06;;;;;;;17.10;9.10;;;;;;;;;;5042269;28;20229;-69
2022/05/22 02:13:37;;;;;;;15.95;9.07;;;;;;;;;;5040134;28;20205;-70
2022/05/22 02:16:03;;;;;;;15.88;9.50;;;;;;;;;;5038816;28;20212;-69
2022/05/22 02:18:28;;;;;;;16.80;9.82;;;;;;;;;;5035752;28;20209;-69
2022/05/22 02:20:54;;;;;;;19.15;9.70;;;;;;;;;;5041419;28;20190;-69
2022/05/22 02:23:20;;;;;;;15.55;8.98;;;;;;;;;;5040948;28;20186;-69
2022/05/22 02:25:48;;;;;;;16.33;9.43;;;;;;;;;;5039158;28;20296;-69
2022/05/22 02:28:17;;;;;;;16.17;8.50;;;;;;;;;;5043640;28;20668;-69
2022/05/22 02:30:47;;;;;;;14.85;9.02;;;;;;;;;;5037590;28;20205;-69
2022/05/22 02:33:12;;;;;;;13.45;9.35;;;;;;;;;;5042100;28;20185;-70
2022/05/22 02:35:38;;;;;;;13.43;8.88;;;;;;;;;;5040349;28;20544;-69
2022/05/22 02:38:04;;;;;;;15.52;8.00;;;;;;;;;;5039600;28;20186;-69
2022/05/22 02:40:31;;;;;;;12.15;7.40;;;;;;;;;;5035874;28;20534;-69
2022/05/22 02:42:57;;;;;;;11.90;7.95;;;;;;;;;;5042842;28;20220;-69
2022/05/22 02:45:25;;;;;;;11.63;8.32;;;;;;;;;;5036639;28;20665;-69
2022/05/22 02:47:51;;;;;;;12.83;7.97;;;;;;;;;;5040242;28;20243;-69
2022/05/22 02:50:19;;;;;;;12.73;7.67;;;;;;;;;;5039740;28;20187;-69
2022/05/22 02:52:45;;;;;;;12.33;7.67;;;;;;;;;;5037939;28;20192;-69
2022/05/22 02:55:10;;;;;;;15.23;8.27;;;;;;;;;;5037228;28;20173;-69
2022/05/22 02:57:38;;;;;;;10.80;7.93;;;;;;;;;;5040774;28;20584;-69
2022/05/22 03:00:08;;;;;;;16.07;8.00;;;;;;;;;;5038755;28;20666;-69
2022/05/22 03:02:33;;;;;;;13.17;7.83;;;;;;;;;;5035611;28;20177;-69
2022/05/22 03:04:59;;;;;;;14.43;8.17;;;;;;;;;;5041011;28;20718;-69
2022/05/22 03:07:24;;;;;;;11.27;6.87;;;;;;;;;;5037796;28;20208;-69
2022/05/22 03:09:49;;;;;;;10.10;7.33;;;;;;;;;;5045713;28;20261;-69
2022/05/22 03:12:19;;;;;;;11.23;6.73;;;;;;;;;;5042232;28;20217;-69
2022/05/22 03:14:47;;;;;;;13.50;7.13;;;;;;;;;;5037454;28;20244;-70
2022/05/22 03:17:13;;;;;;;10.83;6.70;;;;;;;;;;5040495;28;20775;-70
2022/05/22 03:19:38;;;;;;;8.20;5.53;;;;;;;;;;5046978;28;20210;-70
2022/05/22 03:22:05;;;;;;;8.03;5.77;;;;;;;;;;5046354;28;20169;-70
2022/05/22 03:24:30;;;;;;;8.37;5.10;;;;;;;;;;5045444;28;20193;-69
2022/05/22 03:26:56;;;;;;;8.07;5.50;;;;;;;;;;5045783;28;20193;-69
2022/05/22 03:29:21;;;;;;;8.93;5.80;;;;;;;;;;5046091;28;20182;-69
2022/05/22 03:31:47;;;;;;;10.90;5.47;;;;;;;;;;5046018;28;20292;-69
2022/05/22 03:34:12;;;;;;;8.93;5.60;;;;;;;;;;5046827;28;20264;-70
2022/05/22 03:36:41;;;;;;;7.63;5.20;;;;;;;;;;5046722;28;20174;-69
2022/05/22 03:39:07;;;;;;;10.40;5.90;;;;;;;;;;5032929;28;20202;-70
2022/05/22 03:41:34;;;;;;;6.57;4.93;;;;;;;;;;5037119;28;20535;-70
2022/05/22 03:44:00;;;;;;;7.07;5.20;;;;;;;;;;5046774;28;20230;-69
2022/05/22 03:46:25;;;;;;;8.00;5.07;;;;;;;;;;5045231;28;20205;-70
2022/05/22 03:48:51;;;;;;;10.33;4.77;;;;;;;;;;5047503;28;20170;-70
2022/05/22 03:51:16;;;;;;;7.47;5.33;;;;;;;;;;5049810;28;20185;-70
2022/05/22 03:53:41;;;;;;;9.30;5.47;;;;;;;;;;5044535;28;20192;-70
2022/05/22 03:56:18;;;;;;;7.95;5.22;;;;;;;;;;5043622;28;20170;-70
2022/05/22 03:58:44;;;;;;;7.25;5.10;;;;;;;;;;5042980;28;20180;-70
2022/05/22 04:01:09;;;;;;;9.38;5.70;;;;;;;;;;5042014;28;20178;-70
2022/05/22 04:03:35;;;;;;;9.82;6.20;;;;;;;;;;5043906;28;20193;-70
2022/05/22 04:06:02;;;;;;;8.13;5.25;;;;;;;;;;5043425;28;20200;-69
2022/05/22 04:08:29;;;;;;;9.05;5.28;;;;;;;;;;5039125;28;20177;-70
2022/05/22 04:10:55;;;;;;;6.10;5.00;;;;;;;;;;5043205;28;20214;-70
2022/05/22 04:13:20;;;;;;;7.40;4.75;;;;;;;;;;5046124;28;20567;-70
2022/05/22 04:15:46;;;;;;;11.48;5.50;;;;;;;;;;5043345;28;20174;-70
2022/05/22 04:18:12;;;;;;;11.53;5.43;;;;;;;;;;5039727;28;20185;-70
2022/05/22 04:20:37;;;;;;;7.32;5.22;;;;;;;;;;5045689;28;20177;-70
2022/05/22 04:25:55;;;;;;;9.13;5.35;;;;;;;;;;5048748;28;20255;-70
2022/05/22 04:28:25;;;;;;;6.72;4.82;;;;;;;;;;5035639;28;20217;-70
2022/05/22 04:30:51;;;;;;;9.98;4.97;;;;;;;;;;5033995;28;20210;-69
2022/05/22 04:33:16;;;;;;;8.80;5.03;;;;;;;;;;5048822;28;20193;-69
2022/05/22 04:35:43;;;;;;;7.35;4.82;;;;;;;;;;5032620;28;20182;-70
2022/05/22 04:38:10;;;;;;;7.55;5.15;;;;;;;;;;5031753;28;20178;-69
2022/05/22 04:40:35;;;;;;;7.75;5.10;;;;;;;;;;5043032;28;20197;-70
2022/05/22 04:43:01;;;;;;;7.15;4.72;;;;;;;;;;5039404;28;20180;-70
2022/05/22 04:45:26;;;;;;;6.72;4.63;;;;;;;;;;5044929;28;20291;-70
2022/05/22 04:47:51;;;;;;;5.20;4.00;;;;;;;;;;5041572;28;20180;-70
2022/05/22 04:50:17;;;;;;;4.90;4.18;;;;;;;;;;5041247;28;20685;-70
2022/05/22 04:52:43;;;;;;;8.02;4.63;;;;;;;;;;5035524;28;20186;-70
2022/05/22 04:55:09;;;;;;;5.95;4.65;;;;;;;;;;5039417;28;20171;-70
2022/05/22 04:57:35;;;;;;;6.60;4.80;;;;;;;;;;5046834;28;20185;-70
2022/05/22 05:00:02;;;;;;;6.97;4.75;;;;;;;;;;5044627;28;20615;-70
2022/05/22 05:02:27;;;;;;;6.38;4.93;;;;;;;;;;5029676;28;20182;-70
2022/05/22 05:04:56;;;;;;;9.32;5.00;;;;;;;;;;5041082;28;20602;-70
2022/05/22 05:07:22;;;;;;;8.45;5.20;;;;;;;;;;5042419;28;20212;-70
2022/05/22 05:09:50;;;;;;;8.90;5.05;;;;;;;;;;5040394;28;20182;-70
2022/05/22 05:12:17;;;;;;;10.50;5.82;;;;;;;;;;5035483;28;20249;-70
2022/05/22 05:14:42;;;;;;;10.85;5.57;;;;;;;;;;5045070;28;20904;-70
2022/05/22 05:17:10;;;;;;;6.80;4.72;;;;;;;;;;5035745;28;20268;-70
2022/05/22 05:19:35;;;;;;;9.15;5.22;;;;;;;;;;5040871;28;20224;-70
2022/05/22 05:22:00;;;;;;;6.78;5.15;;;;;;;;;;5040188;28;20575;-70
2022/05/22 05:24:26;;;;;;;8.00;6.22;;;;;;;;;;5035173;28;20296;-72
2022/05/22 05:26:54;;;;;;;10.13;7.10;;;;;;;;;;5048262;28;20205;-69
2022/05/22 05:29:20;;;;;;;11.38;7.70;;;;;;;;;;5037838;28;20171;-69
2022/05/22 05:31:45;;;;;;;13.48;8.25;;;;;;;;;;5039146;28;20572;-70
2022/05/22 05:34:11;;;;;;;12.05;7.72;;;;;;;;;;5036951;28;20493;-70
2022/05/22 05:36:37;;;;;;;14.55;7.68;;;;;;;;;;5042326;28;20213;-70
2022/05/22 05:39:03;;;;;;;16.50;7.78;;;;;;;;;;5042263;28;20209;-70
2022/05/22 05:41:29;;;;;;;11.95;8.10;;;;;;;;;;5040541;28;20208;-70
2022/05/22 05:43:54;;;;;;;12.05;7.82;;;;;;;;;;5042826;28;20646;-70
2022/05/22 05:46:19;;;;;;;17.77;8.95;;;;;;;;;;5039130;28;20205;-70
2022/05/22 05:48:45;;;;;;;15.00;8.32;;;;;;;;;;5035079;28;20584;-70
2022/05/22 05:51:12;;;;;;;17.42;9.70;;;;;;;;;;5039049;28;20189;-70
2022/05/22 05:53:37;;;;;;;15.55;9.80;;;;;;;;;;5045113;28;20609;-70
2022/05/22 05:56:04;;;;;;;15.60;9.35;;;;;;;;;;5039876;28;20193;-70
2022/05/22 05:58:29;;;;;;;16.13;9.45;;;;;;;;;;5035796;28;20185;-70
2022/05/22 06:00:55;;;;;;;22.00;10.05;;;;;;;;;;5036720;28;20181;-70
2022/05/22 06:03:20;;;;;;;20.52;10.02;;;;;;;;;;5043335;28;20575;-70
2022/05/22 06:05:47;;;;;;;19.10;8.98;;;;;;;;;;5043233;28;20263;-69
2022/05/22 06:08:12;;;;;;;16.02;9.23;;;;;;;;;;5038262;28;20181;-67
2022/05/22 06:10:38;;;;;;;18.38;8.50;;;;;;;;;;5038396;28;20194;-67
2022/05/22 06:13:04;;;;;;;16.10;6.78;;;;;;;;;;5039197;28;20185;-65
2022/05/22 06:15:29;;;;;;;14.40;6.35;;;;;;;;;;5038139;28;20186;-66
2022/05/22 06:17:56;;;;;;;13.18;6.45;;;;;;;;;;5039010;28;20185;-66
2022/05/22 06:20:22;;;;;;;12.35;5.93;;;;;;;;;;5045706;28;20186;-67
2022/05/22 06:22:47;;;;;;;12.43;5.85;;;;;;;;;;5039505;28;20273;-66
2022/05/22 06:25:15;;;;;;;9.80;4.68;;;;;;;;;;5039717;28;20287;-65
2022/05/22 06:27:41;;;;;;;13.65;5.22;;;;;;;;;;5041768;28;20508;-66
2022/05/22 06:30:07;;;;;;;13.20;5.30;;;;;;;;;;5040898;28;20197;-67
2022/05/22 06:32:33;;;;;;;10.98;4.85;;;;;;;;;;5038345;28;20570;-67
2022/05/22 06:34:59;;;;;;;11.65;5.18;;;;;;;;;;5039638;28;20200;-67
2022/05/22 06:37:25;;;;;;;10.82;5.07;;;;;;;;;;5036242;28;20193;-67
2022/05/22 06:39:54;;;;;;;9.73;5.28;;;;;;;;;;5036755;28;20196;-67
2022/05/22 06:42:42;;;;;;;11.32;4.63;;;;;;;;;;5039123;28;20568;-66
2022/05/22 06:45:15;;;;;;;12.30;4.63;;;;;;;;;;5037952;28;20500;-67
2022/05/22 06:47:42;;;;;;;11.88;4.53;;;;;;;;;;5038413;28;20195;-68
2022/05/22 06:50:12;;;;;;;12.10;4.50;;;;;;;;;;5039952;28;20621;-68
2022/05/22 06:52:38;;;;;;;14.25;4.40;;;;;;;;;;5039136;28;20256;-67
2022/05/22 06:55:05;;;;;;;8.57;3.50;;;;;;;;;;5039440;28;20185;-67
2022/05/22 06:57:31;;;;;;;11.10;3.33;;;;;;;;;;5041346;28;20182;-66
2022/05/22 06:59:58;;;;;;;10.57;3.97;;;;;;;;;;5036835;28;20208;-67
2022/05/22 07:02:27;;;;;;;11.30;4.43;;;;;;;;;;5036034;28;20255;-68
2022/05/22 07:04:56;;;;;;;10.50;3.63;;;;;;;;;;5038858;28;20208;-67
2022/05/22 07:07:22;;;;;;;14.02;4.03;;;;;;;;;;5038801;28;20541;-67
2022/05/22 07:09:48;;;;;;;8.38;3.58;;;;;;;;;;5041664;28;20416;-67
2022/05/22 07:12:15;;;;;;;10.32;3.28;;;;;;;;;;5039529;28;20225;-67
2022/05/22 07:14:42;;;;;;;10.60;3.28;;;;;;;;;;5037672;28;20174;-67
2022/05/22 07:17:10;;;;;;;9.07;3.58;;;;;;;;;;5035798;28;20181;-66
2022/05/22 07:19:37;;;;;;;13.57;3.42;;;;;;;;;;5028663;28;20238;-66
2022/05/22 07:22:06;;;;;;;8.35;3.42;;;;;;;;;;5030652;28;20173;-65
2022/05/22 07:24:34;;;;;;;8.27;3.30;;;;;;;;;;5030676;28;20185;-66
2022/05/22 07:27:00;;;;;;;10.68;3.17;;;;;;;;;;5034875;28;20452;-66
2022/05/22 07:29:25;;;;;;;9.50;3.28;;;;;;;;;;5040289;28;20193;-66
2022/05/22 07:31:50;;;;;;;12.70;3.17;;;;;;;;;;5037500;28;20209;-67
2022/05/22 07:34:16;;;;;;;7.40;2.90;;;;;;;;;;5035470;28;20228;-66
2022/05/22 07:36:41;;;;;;;10.10;3.53;;;;;;;;;;5032102;28;20178;-67
2022/05/22 07:39:07;;;;;;;6.55;2.70;;;;;;;;;;5031034;28;20177;-68
2022/05/22 07:41:32;;;;;;;8.55;2.33;;;;;;;;;;5038635;28;20219;-69
2022/05/22 07:43:59;;;;;;;6.68;2.13;;;;;;;;;;5041581;28;20653;-68
2022/05/22 07:46:25;;;;;;;7.97;2.85;;;;;;;;;;5033504;28;20251;-67
2022/05/22 07:48:50;;;;;;;7.63;2.50;;;;;;;;;;5040128;28;20177;-67
2022/05/22 07:51:16;;;;;;;6.50;2.15;;;;;;;;;;5041108;28;20237;-67
2022/05/22 07:53:42;;;;;;;11.63;2.45;;;;;;;;;;5037402;28;20180;-68
2022/05/22 07:56:08;;;;;;;9.02;2.13;;;;;;;;;;5036985;28;20185;-65
2022/05/22 07:58:34;;;;;;;6.72;2.22;;;;;;;;;;5038121;28;20279;-67
2022/05/22 08:01:00;;;;;;;8.40;2.22;;;;;;;;;;5036848;28;20315;-68
2022/05/22 08:03:26;;;;;;;7.57;2.10;;;;;;;;;;5036258;28;20190;-68
2022/05/22 08:05:53;;;;;;;8.20;2.22;;;;;;;;;;5039519;28;20193;-68
2022/05/22 08:08:19;;;;;;;7.53;2.03;;;;;;;;;;5038441;28;20186;-67
2022/05/22 08:10:45;;;;;;;8.15;1.95;;;;;;;;;;5039483;28;20755;-67
2022/05/22 08:13:11;;;;;;;7.93;1.90;;;;;;;;;;5042461;28;20391;-67
2022/05/22 08:15:39;;;;;;;9.35;2.03;;;;;;;;;;5038725;28;20205;-68
2022/05/22 08:18:07;;;;;;;7.22;1.83;;;;;;;;;;5042407;28;20183;-67
2022/05/22 08:20:36;;;;;;;4.85;1.58;;;;;;;;;;5041545;28;20628;-66
2022/05/22 08:23:04;;;;;;;7.63;1.80;;;;;;;;;;5033072;28;20178;-69
2022/05/22 08:25:31;;;;;;;7.32;1.80;;;;;;;;;;5036537;28;20194;-69
2022/05/22 08:27:57;;;;;;;11.90;2.00;;;;;;;;;;5039994;28;20846;-68
2022/05/22 08:30:25;;;;;;;8.70;1.80;;;;;;;;;;5029711;28;20170;-70
2022/05/22 08:32:51;;;;;;;5.70;1.42;;;;;;;;;;5037744;28;20170;-66
2022/05/22 08:35:23;;;;;;;6.85;2.10;;;;;;;;;;5037798;28;20544;-71
2022/05/22 08:37:49;;;;;;;7.65;2.13;;;;;;;;;;5039977;28;20177;-72
2022/05/22 08:40:16;;;;;;;8.80;2.08;;;;;;;;;;5038994;28;20185;-69
2022/05/22 08:42:47;;;;;;;11.95;2.28;;;;;;;;;;5037619;28;20278;-72
2022/05/22 08:45:22;;;;;;;5.03;1.42;;;;;;;;;;5034120;28;20661;-70
2022/05/22 08:48:01;;;;;;;7.75;2.08;;;;;;;;;;5034819;28;20187;-68
2022/05/22 08:50:29;;;;;;;5.18;1.67;;;;;;;;;;5035303;28;20304;-72
2022/05/22 08:53:24;;;;;;;8.23;2.40;;;;;;;;;;5040684;28;20173;-71
2022/05/22 08:59:21;;;;;;;5.65;1.52;;;;;;;;;;5031574;28;20195;-69
2022/05/22 09:02:04;;;;;;;5.57;1.77;;;;;;;;;;5036844;28;20273;-69
2022/05/22 09:04:43;;;;;;;6.60;1.70;;;;;;;;;;5038796;28;20239;-68
2022/05/22 09:07:11;;;;;;;6.90;1.63;;;;;;;;;;5037246;28;20201;-69
2022/05/22 09:09:39;;;;;;;8.35;1.70;;;;;;;;;;5038072;28;20182;-69
2022/05/22 09:12:23;;;;;;;4.32;1.27;;;;;;;;;;5037108;28;20226;-69
2022/05/22 09:15:10;;;;;;;7.00;1.60;;;;;;;;;;5035571;28;20185;-67
2022/05/22 09:18:04;;;;;;;5.85;2.10;;;;;;;;;;5038486;28;20178;-66
2022/05/22 09:20:41;;;;;;;5.68;1.50;;;;;;;;;;5038656;28;20227;-69
2022/05/22 09:23:39;;;;;;;6.50;1.48;;;;;;;;;;5035760;28;20186;-68
2022/05/22 09:26:20;;;;;;;6.40;1.50;;;;;;;;;;5035423;28;20190;-69
2022/05/22 09:29:09;;;;;;;5.15;1.63;;;;;;;;;;5039153;28;20188;-70
2022/05/22 09:32:03;;;;;;;9.45;2.00;;;;;;;;;;5040372;28;20572;-69
2022/05/22 09:34:31;;;;;;;8.65;2.00;;;;;;;;;;5036898;28;20553;-71
2022/05/22 09:36:59;;;;;;;8.95;2.30;;;;;;;;;;5039739;28;20208;-70
2022/05/22 09:39:47;;;;;;;8.73;1.60;;;;;;;;;;5038886;28;20186;-71
2022/05/22 09:42:34;;;;;;;5.35;1.98;;;;;;;;;;5037408;28;20178;-70
2022/05/22 09:45:02;;;;;;;5.97;1.67;;;;;;;;;;5035300;28;20198;-70
2022/05/22 09:47:46;;;;;;;6.03;1.50;;;;;;;;;;5040352;28;20208;-70
2022/05/22 09:50:14;;;;;;;9.00;2.53;;;;;;;;;;5039796;28;20262;-70
2022/05/22 09:53:00;;;;;;;6.65;1.52;;;;;;;;;;5038611;28;20293;-71
2022/05/22 09:55:28;;;;;;;8.32;1.55;;;;;;;;;;5039569;28;20186;-73
2022/05/22 09:58:31;;;;;;;9.38;2.10;;;;;;;;;;5038258;28;20190;-70
2022/05/22 10:01:16;;;;;;;3.75;1.55;;;;;;;;;;5038964;28;20201;-69
2022/05/22 10:04:19;;;;;;;8.00;1.38;;;;;;;;;;5036127;28;20601;-69
2022/05/22 10:07:30;;;;;;;7.43;1.60;;;;;;;;;;5032862;28;20260;-69
2022/05/22 10:10:26;;;;;;;8.85;1.45;;;;;;;;;;5025464;28;20189;-69
2022/05/22 10:13:08;;;;;;;5.45;1.48;;;;;;;;;;5035425;28;20212;-67
2022/05/22 10:15:46;;;;;;;6.50;1.60;;;;;;;;;;5035966;28;20527;-69
2022/05/22 10:18:35;;;;;;;6.90;2.55;;;;;;;;;;5034788;28;20188;-68
2022/05/22 10:21:04;;;;;;;8.55;1.75;;;;;;;;;;5033462;28;20265;-67
2022/05/22 10:24:02;;;;;;;6.45;1.50;;;;;;;;;;5035694;28;20649;-67
2022/05/22 10:27:03;;;;;;;6.28;1.60;;;;;;;;;;5035230;28;20255;-67
2022/05/22 10:29:37;;;;;;;4.47;1.23;;;;;;;;;;5040544;28;20639;-68
2022/05/22 10:32:27;;;;;;;5.63;1.85;;;;;;;;;;5032318;28;20212;-69
2022/05/22 10:35:11;;;;;;;8.77;1.98;;;;;;;;;;5032611;28;20212;-71
2022/05/22 10:37:43;;;;;;;7.47;1.67;;;;;;;;;;5033011;28;20184;-69
2022/05/22 10:40:15;;;;;;;7.60;2.10;;;;;;;;;;5038015;28;20174;-72
2022/05/22 10:42:45;;;;;;;4.60;1.52;;;;;;;;;;5037868;28;20177;-68
2022/05/22 10:45:33;;;;;;;6.30;1.65;;;;;;;;;;5035923;28;20174;-68
2022/05/22 10:48:10;;;;;;;6.30;1.70;;;;;;;;;;5027078;28;20653;-70
2022/05/22 10:50:37;;;;;;;5.50;1.58;;;;;;;;;;5036734;28;20192;-71
2022/05/22 10:53:03;;;;;;;6.15;1.80;;;;;;;;;;5040776;28;20185;-67
2022/05/22 10:55:38;;;;;;;7.55;1.85;;;;;;;;;;5027806;28;20174;-67
2022/05/22 10:58:16;;;;;;;7.03;1.75;;;;;;;;;;5032518;28;20169;-68
2022/05/22 11:00:55;;;;;;;5.30;1.67;;;;;;;;;;5025948;28;20210;-67
2022/05/22 11:03:26;;;;;;;6.78;1.77;;;;;;;;;;5026430;28;20185;-73
2022/05/22 11:05:52;;;;;;;4.20;1.40;;;;;;;;;;5026349;28;20246;-70
2022/05/22 11:08:34;;;;;;;5.40;1.45;;;;;;;;;;5037327;28;20417;-70
2022/05/22 11:11:22;;;;;;;6.75;1.50;;;;;;;;;;5027805;28;20253;-70
2022/05/22 11:13:47;;;;;;;3.65;1.48;;;;;;;;;;5036710;28;20217;-70
2022/05/22 11:16:16;;;;;;;8.90;1.98;;;;;;;;;;5027722;28;20201;-70
2022/05/22 11:18:42;;;;;;;3.88;1.40;;;;;;;;;;5039334;28;20188;-71
2022/05/22 11:21:24;;;;;;;8.95;2.08;;;;;;;;;;5031737;28;20173;-72
2022/05/22 11:23:55;;;;;;;8.90;2.03;;;;;;;;;;5027758;28;20460;-72
2022/05/22 11:26:40;;;;;;;11.52;2.10;;;;;;;;;;5032777;28;20185;-72
2022/05/22 11:29:17;;;;;;;7.05;2.15;;;;;;;;;;5027561;28;20264;-73
2022/05/22 11:32:11;;;;;;;7.40;1.42;;;;;;;;;;5036471;28;20205;-72
2022/05/22 11:35:02;;;;;;;6.45;1.63;;;;;;;;;;5027000;28;20239;-69
2022/05/22 11:37:42;;;;;;;4.05;1.50;;;;;;;;;;5040273;28;20716;-68
2022/05/22 11:40:33;;;;;;;8.85;1.67;;;;;;;;;;5049263;28;20192;-68
2022/05/22 11:43:38;;;;;;;5.45;1.20;;;;;;;;;;5032498;28;20280;-66
2022/05/22 11:46:25;;;;;;;6.25;1.33;;;;;;;;;;5024326;28;20673;-70
2022/05/22 11:49:05;;;;;;;4.55;1.50;;;;;;;;;;5049304;28;20247;-68
2022/05/22 11:51:55;;;;;;;3.78;1.33;;;;;;;;;;5034888;28;20177;-71
2022/05/22 11:54:55;;;;;;;6.10;1.80;;;;;;;;;;5041633;28;20248;-66
2022/05/22 11:57:23;;;;;;;5.50;1.30;;;;;;;;;;5041387;28;20185;-67
2022/05/22 12:00:31;;;;;;;4.00;1.25;;;;;;;;;;5041466;28;20235;-68
2022/05/22 12:03:25;;;;;;;6.32;1.85;;;;;;;;;;5034683;28;21418;-70
2022/05/22 12:06:01;;;;;;;4.82;1.55;;;;;;;;;;5039209;28;20405;-69
2022/05/22 12:08:51;;;;;;;5.35;1.60;;;;;;;;;;5040312;28;20200;-71
2022/05/22 12:11:30;;;;;;;4.85;1.70;;;;;;;;;;5042905;28;20236;-71
2022/05/22 12:14:20;;;;;;;3.75;1.33;;;;;;;;;;5042348;28;20295;-70
2022/05/22 12:16:55;;;;;;;5.95;1.30;;;;;;;;;;5031426;28;20194;-72
2022/05/22 12:20:01;;;;;;;6.55;1.50;;;;;;;;;;5046914;28;20227;-69
2022/05/22 12:23:07;;;;;;;5.85;1.40;;;;;;;;;;5043138;28;20565;-69
2022/05/22 12:25:22;;;;;;;5.28;1.23;;;;;;;;;;5041609;28;20582;-69
2022/05/22 12:27:48;;;;;;;4.60;1.38;;;;;;;;;;5040400;28;20596;-69
2022/05/22 12:30:18;;;;;;;4.05;1.05;;;;;;;;;;5039542;28;20288;-66
2022/05/22 12:32:59;;;;;;;4.70;1.50;;;;;;;;;;5040311;28;20198;-66
2022/05/22 12:35:26;;;;;;;4.95;1.15;;;;;;;;;;5042646;28;20183;-69
2022/05/22 12:38:06;;;;;;;5.03;1.42;;;;;;;;;;5037796;28;20170;-72
2022/05/22 12:40:49;;;;;;;6.93;1.25;;;;;;;;;;5039145;28;20180;-71
2022/05/22 12:43:18;;;;;;;4.28;1.15;;;;;;;;;;5039536;28;20201;-71
2022/05/22 12:45:51;;;;;;;6.25;1.40;;;;;;;;;;5037953;28;20591;-71
2022/05/22 12:48:35;;;;;;;6.80;1.83;;;;;;;;;;5036006;28;20186;-71
2022/05/22 12:51:20;;;;;;;4.10;1.10;;;;;;;;;;5040626;28;20173;-71
2022/05/22 12:53:54;;;;;;;3.47;1.50;;;;;;;;;;5039938;28;20254;-69
2022/05/22 12:56:29;;;;;;;5.45;1.42;;;;;;;;;;5038446;28;20655;-70
2022/05/22 12:59:03;;;;;;;5.38;1.10;;;;;;;;;;5038286;28;20189;-65
2022/05/22 13:01:31;;;;;;;1.88;0.95;;;;;;;;;;5039690;28;20189;-66
2022/05/22 13:04:20;;;;;;;4.82;1.27;;;;;;;;;;5039270;28;20185;-68
2022/05/22 13:06:52;;;;;;;3.83;1.20;;;;;;;;;;5037886;28;20214;-67
2022/05/22 13:09:24;;;;;;;4.30;1.35;;;;;;;;;;5040205;28;20170;-66
2022/05/22 13:11:57;;;;;;;4.57;1.02;;;;;;;;;;5042178;28;20229;-70
2022/05/22 13:14:26;;;;;;;4.18;1.10;;;;;;;;;;5039073;28;20257;-71
2022/05/22 13:16:52;;;;;;;4.10;1.17;;;;;;;;;;5041401;28;20173;-69
2022/05/22 13:19:23;;;;;;;3.80;1.10;;;;;;;;;;5036838;28;20184;-68
2022/05/22 13:21:49;;;;;;;6.18;1.48;;;;;;;;;;5033870;28;20257;-65
2022/05/22 13:24:15;;;;;;;4.13;1.40;;;;;;;;;;5044118;28;20181;-67
2022/05/22 13:26:41;;;;;;;5.40;1.35;;;;;;;;;;5034727;28;20189;-67
2022/05/22 13:29:15;;;;;;;4.97;1.27;;;;;;;;;;5038290;28;20252;-67
2022/05/22 13:31:49;;;;;;;4.53;1.25;;;;;;;;;;5036888;28;20208;-67
2022/05/22 13:34:14;;;;;;;4.75;1.50;;;;;;;;;;5037848;28;20276;-68
2022/05/22 13:37:07;;;;;;;7.95;1.63;;;;;;;;;;5036916;28;20266;-67
2022/05/22 13:40:04;;;;;;;5.78;1.55;;;;;;;;;;5039447;28;20205;-67
2022/05/22 13:42:47;;;;;;;4.60;0.95;;;;;;;;;;5033829;28;20261;-69
2022/05/22 13:45:23;;;;;;;4.95;1.50;;;;;;;;;;5039754;28;20519;-66
2022/05/22 13:48:26;;;;;;;5.50;1.52;;;;;;;;;;5039934;28;20190;-65
2022/05/22 13:54:35;;;;;;;2.38;1.10;;;;;;;;;;5039571;28;20191;-67
2022/05/22 13:57:24;;;;;;;4.95;1.35;;;;;;;;;;5039080;28;20649;-67
2022/05/22 13:59:58;;;;;;;4.43;1.23;;;;;;;;;;5039721;28;20228;-67
2022/05/22 14:02:27;;;;;;;4.55;1.20;;;;;;;;;;5041236;28;20271;-68
2022/05/22 14:04:54;;;;;;;40.65;10.88;;;;;;;;;;5033981;28;20650;-69
2022/05/22 14:07:47;;;;;;;2.88;1.50;;;;;;;;;;5040056;28;20452;-69
2022/05/22 14:10:13;;;;;;;4.78;1.48;;;;;;;;;;5039704;28;20260;-70
2022/05/22 14:12:42;;;;;;;7.68;1.27;;;;;;;;;;5036307;28;20226;-67
2022/05/22 14:15:17;;;;;;;3.50;1.20;;;;;;;;;;5038315;28;20591;-65
2022/05/22 14:17:43;;;;;;;3.95;1.05;;;;;;;;;;5036635;28;20169;-69
2022/05/22 14:20:29;;;;;;;3.67;1.30;;;;;;;;;;5037101;28;20189;-69
2022/05/22 14:23:13;;;;;;;3.33;1.30;;;;;;;;;;5037158;28;20672;-69
2022/05/22 14:25:41;;;;;;;6.20;1.33;;;;;;;;;;5036468;28;20198;-69
2022/05/22 14:28:07;;;;;;;3.83;1.10;;;;;;;;;;5035440;28;20174;-70
2022/05/22 14:30:39;;;;;;;5.25;1.33;;;;;;;;;;5033872;28;20181;-66
2022/05/22 14:33:16;;;;;;;5.57;1.15;;;;;;;;;;5037416;28;20178;-69
2022/05/22 14:36:01;;;;;;;3.60;1.35;;;;;;;;;;5038514;28;20185;-69
2022/05/22 14:38:33;;;;;;;4.53;1.38;;;;;;;;;;5036479;28;20970;-69
2022/05/22 14:41:10;;;;;;;4.63;1.77;;;;;;;;;;5038137;28;20507;-68
2022/05/22 14:43:51;;;;;;;3.72;1.20;;;;;;;;;;5039204;28;20210;-70
2022/05/22 14:46:40;;;;;;;3.80;1.20;;;;;;;;;;5037816;28;20328;-70
2022/05/22 14:49:14;;;;;;;5.10;1.30;;;;;;;;;;5034147;28;20622;-71
2022/05/22 14:51:52;;;;;;;4.32;1.25;;;;;;;;;;5038515;28;20177;-64
2022/05/22 14:54:17;;;;;;;4.25;1.30;;;;;;;;;;5031957;28;20355;-67
2022/05/22 14:56:48;;;;;;;4.82;1.33;;;;;;;;;;5037451;28;20310;-69
2022/05/22 14:59:18;;;;;;;3.40;1.45;;;;;;;;;;5038883;28;20235;-67
2022/05/22 15:01:52;;;;;;;3.92;1.45;;;;;;;;;;5035147;28;20665;-70
2022/05/22 15:04:22;;;;;;;2.72;1.35;;;;;;;;;;5036925;28;20186;-70
2022/05/22 15:07:05;;;;;;;3.50;1.10;;;;;;;;;;5035200;28;20563;-70
2022/05/22 15:09:39;;;;;;;4.78;1.17;;;;;;;;;;5033125;28;20186;-71
2022/05/22 15:12:06;;;;;;;2.78;1.40;;;;;;;;;;5035089;28;20825;-69
2022/05/22 15:14:48;;;;;;;3.63;1.05;;;;;;;;;;5035229;28;20181;-66